Terminal Aerodrome Forecast
Issued by NWS

Home | Current Version | Previous Version | Text Only | Print | Product List | Glossary On
Versions: 1 2 3 4 5 6 7 8 9 10 11 12 13
000
FTUS45 KABQ 260522
TAFLVS
TAF
KLVS 260522Z 2606/2706 19012KT P6SM SKC
     FM260900 22007KT P6SM SKC
     FM261500 22015G25KT P6SM SKC
     FM262000 23025G35KT P6SM SCT080 SCT120=

USA.gov is the U.S. government's official web portal to all federal, state and local government web resources and services.